Aviation Digital Data Service (ADDS)

Output produced by METARs form (0009 UTC 19 August 2019)
found at http://www.aviationweather.gov/metar/data/
 
METAR text: RJTL 182250Z 04009KT 9000 BKN010 27/24 Q1011 RMK 7CU010 A2987
Conditions at: RJTL (SHIMOFUSA (JMSDF, JP) observed 2250 UTC 18 August 2019
Temperature: 27.0°C (81°F)
Dewpoint: 24.0°C (75°F) [RH = 84%]
Pressure (altimeter): 29.85 inches Hg (1011.0 mb)
Winds: from the NE (40 degrees) at 10 MPH (9 knots; 4.6 m/s)
Visibility: 6 miles ( 9 km)
Ceiling: 1000 feet AGL
Clouds: broken clouds at 1000 feet AGL
Weather: no significant weather observed at this time

METAR text: RJTL 182025Z 02005KT 8000 BKN008 BKN020 27/24 Q1010 RMK 5ST008 7SC020 A2985
Conditions at: RJTL (SHIMOFUSA (JMSDF, JP) observed 2025 UTC 18 August 2019
Temperature: 27.0°C (81°F)
Dewpoint: 24.0°C (75°F) [RH = 84%]
Pressure (altimeter): 29.82 inches Hg (1010.0 mb)
Winds: from the NNE (20 degrees) at 6 MPH (5 knots; 2.6 m/s)
Visibility: 5 miles ( 8 km)
Ceiling: 800 feet AGL
Clouds: broken clouds at 800 feet AGL
broken clouds at 2000 feet AGL
Weather: no significant weather observed at this time